createdAt,value
2018-10-04T00:02:17.858Z,7.97
2018-10-04T00:04:45.832Z,8.70
2018-10-04T00:07:13.914Z,3.15
2018-10-04T00:09:41.897Z,5.80
2018-10-04T00:12:13.167Z,4.83
2018-10-04T00:14:41.120Z,8.43
2018-10-04T00:17:09.058Z,7.33
2018-10-04T00:19:41.802Z,4.58
2018-10-04T00:22:09.787Z,4.70
2018-10-04T00:24:37.792Z,4.03
2018-10-04T00:27:05.947Z,2.08
2018-10-04T00:29:37.833Z,7.22
2018-10-04T00:32:05.933Z,7.10
2018-10-04T00:34:33.910Z,3.10
2018-10-04T00:37:08.825Z,3.83
2018-10-04T00:39:36.814Z,3.80
2018-10-04T00:42:04.761Z,4.00
2018-10-04T00:44:32.726Z,3.30
2018-10-04T00:47:00.668Z,5.62
2018-10-04T00:49:32.004Z,5.92
2018-10-04T00:51:59.956Z,5.50
2018-10-04T00:54:27.916Z,2.67
2018-10-04T00:56:55.852Z,12.70
2018-10-04T00:59:24.860Z,5.20
2018-10-04T01:01:52.882Z,4.37
2018-10-04T01:04:20.839Z,3.75
2018-10-04T01:06:49.844Z,3.15
2018-10-04T01:09:18.546Z,6.12
2018-10-04T01:11:46.520Z,7.25
2018-10-04T01:14:14.508Z,2.70
2018-10-04T01:16:44.496Z,4.35
2018-10-04T01:19:12.544Z,2.95
2018-10-04T01:21:40.531Z,6.28
2018-10-04T01:24:08.523Z,2.17
2018-10-04T01:26:43.670Z,5.22
2018-10-04T01:29:11.610Z,7.25
2018-10-04T01:31:39.555Z,4.05
2018-10-04T01:34:13.123Z,7.20
2018-10-04T01:36:41.126Z,3.45
2018-10-04T01:39:09.078Z,3.55
2018-10-04T01:41:37.083Z,4.50
2018-10-04T01:44:15.253Z,5.28
2018-10-04T01:46:43.216Z,5.90
2018-10-04T01:49:11.238Z,7.10
2018-10-04T01:51:40.362Z,5.05
2018-10-04T01:54:08.356Z,4.87
2018-10-04T01:56:36.345Z,8.35
2018-10-04T01:59:04.535Z,8.30
2018-10-04T02:01:32.568Z,3.47
2018-10-04T02:04:00.511Z,6.25
2018-10-04T02:06:29.415Z,5.28
2018-10-04T02:08:57.422Z,7.92
2018-10-04T02:11:37.913Z,2.83
2018-10-04T02:14:05.905Z,3.95
2018-10-04T02:16:33.869Z,2.15
2018-10-04T02:19:01.857Z,4.83
2018-10-04T02:21:29.872Z,1.98
2018-10-04T02:23:57.825Z,7.50
2018-10-04T02:26:25.819Z,1.67
2018-10-04T02:28:55.997Z,3.50
2018-10-04T02:31:23.964Z,3.20
2018-10-04T02:33:51.891Z,1.72
2018-10-04T02:36:19.883Z,9.90
2018-10-04T02:38:48.006Z,4.65
2018-10-04T02:41:16.042Z,5.85
2018-10-04T02:43:44.022Z,5.25
2018-10-04T02:46:17.949Z,4.20
2018-10-04T02:48:45.982Z,1.72
2018-10-04T02:51:13.918Z,3.98
2018-10-04T02:53:41.880Z,5.10
2018-10-04T02:57:17.941Z,5.92
2018-10-04T02:59:45.884Z,4.70
2018-10-04T03:02:25.790Z,3.22
2018-10-04T03:04:53.770Z,2.72
2018-10-04T03:07:21.700Z,5.12
2018-10-04T03:09:49.700Z,2.37
2018-10-04T03:12:31.355Z,3.02
2018-10-04T03:14:59.410Z,8.55
2018-10-04T03:17:27.373Z,4.12
2018-10-04T03:19:55.362Z,2.85
2018-10-04T03:22:23.405Z,5.95
2018-10-04T03:24:51.320Z,2.85
2018-10-04T03:27:19.299Z,5.45
2018-10-04T03:29:47.270Z,4.42
2018-10-04T03:32:29.116Z,6.20
2018-10-04T03:34:57.079Z,6.92
2018-10-04T03:37:25.034Z,3.65
2018-10-04T03:39:53.034Z,5.75
2018-10-04T03:42:21.012Z,10.50
2018-10-04T03:44:48.975Z,4.05
2018-10-04T03:47:20.519Z,3.37
2018-10-04T03:49:48.477Z,6.05
2018-10-04T03:52:16.459Z,2.58
2018-10-04T03:54:44.455Z,3.70
2018-10-04T03:57:23.047Z,8.98
2018-10-04T03:59:50.994Z,3.08
2018-10-04T04:02:18.975Z,3.83
2018-10-04T04:04:46.951Z,5.15
2018-10-04T04:07:21.022Z,4.35
2018-10-04T04:09:49.000Z,4.12
2018-10-04T04:12:16.941Z,2.45
2018-10-04T04:14:46.369Z,4.25
2018-10-04T04:17:14.334Z,2.95
2018-10-04T04:19:42.300Z,2.52
2018-10-04T04:22:10.388Z,10.40
2018-10-04T04:24:40.440Z,6.05
2018-10-04T04:27:08.392Z,5.33
2018-10-04T04:29:36.396Z,4.75
2018-10-04T04:32:04.608Z,6.20
2018-10-04T04:34:39.561Z,5.37
2018-10-04T04:37:07.705Z,4.78
2018-10-04T04:39:35.742Z,9.53
2018-10-04T04:42:03.688Z,4.28
2018-10-04T04:44:41.561Z,4.20
2018-10-04T04:47:09.638Z,5.03
2018-10-04T04:49:37.530Z,6.12
2018-10-04T04:52:05.540Z,5.47
2018-10-04T04:55:44.161Z,4.00
2018-10-04T04:58:13.576Z,6.22
2018-10-04T05:00:42.712Z,3.95
2018-10-04T05:03:10.760Z,7.17
2018-10-04T05:05:38.812Z,6.05
2018-10-04T05:08:07.761Z,4.80
2018-10-04T05:10:36.182Z,7.15
2018-10-04T05:13:05.201Z,7.12
2018-10-04T05:15:33.287Z,7.00
2018-10-04T05:18:01.354Z,5.42
2018-10-04T05:20:29.391Z,3.77
2018-10-04T05:22:57.352Z,6.85
2018-10-04T05:25:25.393Z,5.08
2018-10-04T05:27:57.952Z,4.05
2018-10-04T05:30:26.153Z,5.67
2018-10-04T05:32:54.185Z,2.60
2018-10-04T05:35:22.185Z,8.40
2018-10-04T05:37:57.113Z,6.35
2018-10-04T05:40:25.153Z,6.65
2018-10-04T05:42:53.164Z,8.88
2018-10-04T05:45:21.219Z,3.62
2018-10-04T05:47:55.561Z,8.30
2018-10-04T05:50:23.549Z,6.25
2018-10-04T05:52:51.568Z,5.50
2018-10-04T05:55:19.704Z,8.03
2018-10-04T05:57:47.644Z,6.75
2018-10-04T06:00:30.658Z,9.23
2018-10-04T06:02:58.657Z,17.10
2018-10-04T06:05:26.665Z,17.25
2018-10-04T06:07:54.810Z,9.45
2018-10-04T06:10:22.743Z,10.90
2018-10-04T06:12:50.752Z,9.40
2018-10-04T06:15:19.791Z,9.73
2018-10-04T06:17:47.766Z,7.83
2018-10-04T06:20:16.037Z,11.38
2018-10-04T06:22:44.004Z,4.47
2018-10-04T06:25:12.124Z,9.23
2018-10-04T06:27:40.196Z,4.58
2018-10-04T06:30:08.832Z,5.87
2018-10-04T06:32:36.868Z,7.83
2018-10-04T06:35:05.958Z,9.45
2018-10-04T06:37:33.971Z,8.93
2018-10-04T06:40:01.987Z,3.47
2018-10-04T06:42:29.960Z,6.28
2018-10-04T06:45:01.740Z,7.78
2018-10-04T06:47:29.797Z,8.53
2018-10-04T06:49:57.773Z,5.90
2018-10-04T06:52:27.861Z,10.70
2018-10-04T06:54:55.801Z,5.25
2018-10-04T06:57:23.885Z,4.63
2018-10-04T06:59:51.878Z,5.80
2018-10-04T07:02:19.855Z,4.90
2018-10-04T07:04:48.631Z,6.77
2018-10-04T07:07:16.670Z,3.80
2018-10-04T07:09:44.704Z,4.20
2018-10-04T07:12:12.668Z,4.30
2018-10-04T07:14:40.694Z,8.00
2018-10-04T07:17:08.696Z,6.17
2018-10-04T07:19:36.726Z,3.40
2018-10-04T07:22:04.765Z,4.30
2018-10-04T07:24:32.726Z,6.03
2018-10-04T07:27:00.728Z,5.20
2018-10-04T07:29:28.744Z,6.53
2018-10-04T07:31:56.698Z,6.60
2018-10-04T07:34:24.667Z,33.30
2018-10-04T07:36:52.655Z,5.93
2018-10-04T07:39:20.633Z,7.43
2018-10-04T07:41:48.638Z,7.90
2018-10-04T07:44:16.573Z,7.50
2018-10-04T07:46:44.553Z,8.43
2018-10-04T07:49:12.521Z,14.87
2018-10-04T07:51:40.501Z,22.83
2018-10-04T07:54:08.435Z,12.17
2018-10-04T07:56:36.456Z,7.50
2018-10-04T07:59:04.486Z,19.80
2018-10-04T08:01:32.397Z,34.90
2018-10-04T08:04:00.444Z,9.50
2018-10-04T08:06:28.569Z,9.10
2018-10-04T08:08:56.393Z,5.30
2018-10-04T08:11:24.361Z,9.60
2018-10-04T08:13:52.324Z,7.07
2018-10-04T08:16:20.274Z,7.33
2018-10-04T08:18:48.381Z,7.93
2018-10-04T08:21:16.352Z,5.17
2018-10-04T08:23:44.324Z,6.53
2018-10-04T08:26:12.294Z,10.40
2018-10-04T08:28:40.280Z,22.47
2018-10-04T08:31:08.252Z,27.43
2018-10-04T08:33:36.427Z,14.43
2018-10-04T08:36:04.450Z,11.63
2018-10-04T08:38:32.410Z,10.93
2018-10-04T08:41:00.535Z,14.87
2018-10-04T08:43:28.613Z,12.93
2018-10-04T08:45:56.549Z,11.43
2018-10-04T08:48:24.606Z,7.23
2018-10-04T08:50:53.540Z,23.55
2018-10-04T08:53:21.636Z,7.85
2018-10-04T08:55:49.626Z,8.33
2018-10-04T08:58:17.615Z,14.83
2018-10-04T09:00:45.628Z,17.67
2018-10-04T09:03:13.644Z,42.33
2018-10-04T09:05:45.151Z,12.63
2018-10-04T09:08:13.126Z,10.73
2018-10-04T09:10:41.214Z,9.83
2018-10-04T09:13:09.144Z,12.23
2018-10-04T09:15:37.104Z,9.93
2018-10-04T09:18:05.136Z,8.40
2018-10-04T09:20:33.180Z,9.30
2018-10-04T09:23:01.237Z,7.57
2018-10-04T09:25:29.252Z,11.27
2018-10-04T09:27:57.231Z,10.13
2018-10-04T09:30:30.790Z,9.20
2018-10-04T09:32:58.847Z,12.23
2018-10-04T09:35:28.717Z,7.67
2018-10-04T09:37:56.853Z,8.83
2018-10-04T09:40:24.808Z,9.57
2018-10-04T09:42:52.785Z,9.13
2018-10-04T09:45:20.755Z,5.23
2018-10-04T09:47:53.257Z,10.07
2018-10-04T09:50:21.256Z,6.00
2018-10-04T09:52:49.226Z,8.07
2018-10-04T09:55:17.208Z,10.93
2018-10-04T09:57:46.008Z,7.13
2018-10-04T10:00:19.662Z,8.43
2018-10-04T10:02:52.657Z,7.90
2018-10-04T10:05:20.649Z,8.13
2018-10-04T10:07:49.631Z,5.40
2018-10-04T10:10:17.570Z,9.53
2018-10-04T10:12:46.162Z,10.20
2018-10-04T10:15:14.564Z,11.73
2018-10-04T10:17:42.690Z,7.43
2018-10-04T10:20:11.299Z,7.40
2018-10-04T10:22:39.361Z,11.23
2018-10-04T10:25:07.397Z,6.50
2018-10-04T10:27:35.357Z,8.67
2018-10-04T10:30:03.425Z,6.20
2018-10-04T10:32:31.356Z,7.77
2018-10-04T10:34:59.929Z,8.67
2018-10-04T10:37:27.994Z,7.20
2018-10-04T10:39:56.083Z,8.37
2018-10-04T10:42:24.118Z,8.40
2018-10-04T10:44:52.140Z,8.17
2018-10-04T10:47:20.114Z,7.83
2018-10-04T10:49:48.282Z,7.80
2018-10-04T10:52:16.346Z,8.33
2018-10-04T10:54:44.382Z,9.60
2018-10-04T10:57:12.318Z,7.23
2018-10-04T10:59:40.269Z,9.23
2018-10-04T11:02:08.322Z,10.30
2018-10-04T11:04:36.357Z,7.17
2018-10-04T11:07:04.392Z,9.60
2018-10-04T11:09:32.420Z,9.73
2018-10-04T11:12:00.505Z,4.70
2018-10-04T11:14:28.511Z,3.23
2018-10-04T11:16:56.546Z,8.47
2018-10-04T11:19:24.574Z,7.80
2018-10-04T11:21:52.563Z,6.63
2018-10-04T11:24:20.619Z,7.20
2018-10-04T11:26:48.575Z,4.90
2018-10-04T11:29:16.633Z,6.50
2018-10-04T11:31:45.333Z,7.57
2018-10-04T11:34:13.337Z,7.50
2018-10-04T11:36:42.440Z,5.70
2018-10-04T11:39:10.651Z,8.27
2018-10-04T11:41:39.718Z,8.53
2018-10-04T11:44:16.411Z,8.40
2018-10-04T11:46:45.673Z,6.50
2018-10-04T11:49:13.742Z,5.20
2018-10-04T11:51:41.741Z,6.27
2018-10-04T11:54:09.716Z,5.60
2018-10-04T11:56:37.755Z,8.97
2018-10-04T11:59:05.898Z,6.10
2018-10-04T12:01:33.945Z,3.93
2018-10-04T12:04:01.888Z,5.30
2018-10-04T12:06:29.922Z,3.53
2018-10-04T12:08:58.052Z,3.37
2018-10-04T12:11:26.043Z,5.60
2018-10-04T12:13:54.064Z,6.50
2018-10-04T12:16:22.053Z,3.80
2018-10-04T12:18:50.072Z,4.70
2018-10-04T12:21:18.093Z,6.93
2018-10-04T12:23:46.071Z,7.10
2018-10-04T12:26:14.153Z,4.17
2018-10-04T12:28:42.116Z,6.47
2018-10-04T12:31:10.180Z,3.50
2018-10-04T12:33:38.165Z,3.03
2018-10-04T12:36:06.537Z,7.77
2018-10-04T12:38:34.543Z,4.77
2018-10-04T12:41:02.564Z,10.40
2018-10-04T12:43:30.571Z,4.40
2018-10-04T12:45:58.565Z,5.43
2018-10-04T12:48:26.562Z,4.37
2018-10-04T12:50:54.586Z,3.70
2018-10-04T12:53:22.576Z,3.53
2018-10-04T12:55:50.581Z,3.80
2018-10-04T12:58:18.521Z,6.63
2018-10-04T13:00:46.598Z,3.40
2018-10-04T13:03:14.569Z,8.53
2018-10-04T13:05:42.606Z,3.10
2018-10-04T13:08:10.591Z,5.23
2018-10-04T13:10:38.663Z,4.93
2018-10-04T13:13:06.663Z,7.40
2018-10-04T13:15:34.593Z,6.30
2018-10-04T13:18:02.592Z,4.47
2018-10-04T13:20:30.636Z,6.90
2018-10-04T13:22:58.596Z,7.43
2018-10-04T13:25:26.570Z,4.80
2018-10-04T13:27:54.656Z,8.00
2018-10-04T13:30:23.936Z,15.73
2018-10-04T13:32:51.887Z,6.23
2018-10-04T13:35:19.854Z,4.77
2018-10-04T13:37:47.917Z,4.93
2018-10-04T13:40:15.868Z,5.83
2018-10-04T13:42:43.818Z,3.20
2018-10-04T13:45:11.860Z,2.83
2018-10-04T13:47:39.762Z,4.40
2018-10-04T13:50:07.823Z,6.03
2018-10-04T13:52:35.836Z,3.43
2018-10-04T13:55:03.896Z,3.80
2018-10-04T13:57:31.856Z,4.23
2018-10-04T13:59:59.819Z,4.23
2018-10-04T14:02:27.829Z,4.53
2018-10-04T14:04:55.832Z,5.13
2018-10-04T14:07:23.827Z,3.00
2018-10-04T14:09:51.787Z,3.23
2018-10-04T14:12:19.803Z,2.73
2018-10-04T14:14:47.822Z,5.83
2018-10-04T14:17:17.844Z,4.77
2018-10-04T14:19:45.869Z,4.77
2018-10-04T14:22:13.818Z,3.73
2018-10-04T14:24:41.841Z,6.73
2018-10-04T14:27:11.912Z,5.70
2018-10-04T14:29:40.018Z,2.50
2018-10-04T14:32:08.077Z,4.60
2018-10-04T14:34:39.815Z,3.80
2018-10-04T14:37:07.801Z,4.23
2018-10-04T14:39:36.209Z,3.33
2018-10-04T14:42:04.229Z,4.57
2018-10-04T14:44:32.341Z,3.00
2018-10-04T14:47:00.953Z,2.40
2018-10-04T14:49:28.937Z,3.10
2018-10-04T14:51:57.393Z,4.50
2018-10-04T14:54:26.545Z,4.70
2018-10-04T14:56:54.519Z,4.57
2018-10-04T14:59:22.527Z,3.17
2018-10-04T15:01:50.644Z,3.30
2018-10-04T15:04:18.647Z,2.70
2018-10-04T15:06:46.682Z,6.47
2018-10-04T15:09:14.661Z,3.30
2018-10-04T15:11:42.661Z,4.53
2018-10-04T15:14:10.668Z,4.10
2018-10-04T15:16:38.661Z,5.93
2018-10-04T15:19:06.675Z,4.23
2018-10-04T15:21:35.808Z,4.90
2018-10-04T15:24:03.862Z,3.60
2018-10-04T15:26:31.779Z,6.40
2018-10-04T15:28:59.776Z,6.00
2018-10-04T15:31:29.850Z,2.43
2018-10-04T15:33:57.805Z,6.20
2018-10-04T15:36:25.801Z,8.67
2018-10-04T15:38:53.745Z,5.60
2018-10-04T15:41:21.954Z,3.77
2018-10-04T15:43:49.943Z,7.53
2018-10-04T15:46:17.957Z,13.70
2018-10-04T15:48:45.967Z,16.17
2018-10-04T15:51:20.061Z,11.07
2018-10-04T15:53:48.105Z,10.97
2018-10-04T15:56:16.197Z,4.90
2018-10-04T15:58:44.363Z,4.80
2018-10-04T16:01:12.359Z,7.37
2018-10-04T16:03:40.419Z,16.60
2018-10-04T16:06:08.403Z,17.82
2018-10-04T16:08:44.442Z,21.45
2018-10-04T16:11:12.439Z,12.40
2018-10-04T16:13:40.455Z,7.17
2018-10-04T16:16:08.442Z,5.05
2018-10-04T16:18:40.894Z,5.50
2018-10-04T16:21:10.087Z,6.10
2018-10-04T16:23:38.058Z,5.95
2018-10-04T16:26:20.252Z,7.85
2018-10-04T16:28:48.244Z,11.05
2018-10-04T16:31:16.234Z,15.58
2018-10-04T16:33:44.105Z,12.30
2018-10-04T16:36:12.084Z,17.55
2018-10-04T16:38:40.170Z,11.97
2018-10-04T16:41:08.199Z,11.78
2018-10-04T16:43:36.270Z,13.43
2018-10-04T16:46:04.334Z,11.88
2018-10-04T16:48:38.835Z,10.50
2018-10-04T16:51:06.796Z,12.45
2018-10-04T16:53:34.727Z,12.73
2018-10-04T16:56:05.978Z,17.27
2018-10-04T16:58:33.965Z,23.32
2018-10-04T17:01:01.934Z,28.75
2018-10-04T17:03:29.923Z,27.02
2018-10-04T17:05:59.066Z,33.15
2018-10-04T17:08:27.087Z,40.12
2018-10-04T17:10:55.062Z,38.35
2018-10-04T17:13:23.052Z,22.95
2018-10-04T17:15:54.952Z,20.08
2018-10-04T17:18:22.904Z,18.75
2018-10-04T17:20:50.918Z,18.48
2018-10-04T17:23:18.960Z,17.92
2018-10-04T17:25:48.633Z,15.90
2018-10-04T17:28:20.347Z,19.77
2018-10-04T17:30:48.350Z,16.82
2018-10-04T17:33:16.326Z,15.85
2018-10-04T17:35:44.484Z,24.90
2018-10-04T17:38:16.256Z,17.52
2018-10-04T17:40:44.182Z,15.95
2018-10-04T17:43:12.684Z,9.65
2018-10-04T17:45:40.806Z,12.60
2018-10-04T17:48:08.778Z,16.07
2018-10-04T17:50:36.819Z,22.65
2018-10-04T17:53:05.985Z,30.52
2018-10-04T17:55:34.036Z,33.40
2018-10-04T17:58:02.088Z,41.92
2018-10-04T18:00:32.091Z,37.42
2018-10-04T18:03:00.087Z,39.70
2018-10-04T18:05:28.094Z,48.80
2018-10-04T18:07:56.467Z,36.08
2018-10-04T18:10:24.615Z,30.60
2018-10-04T18:12:52.658Z,23.25
2018-10-04T18:15:20.663Z,22.25
2018-10-04T18:17:48.683Z,21.17
2018-10-04T18:20:20.000Z,19.30
2018-10-04T18:22:48.002Z,20.30
2018-10-04T18:25:16.031Z,26.95
2018-10-04T18:27:44.045Z,28.07
2018-10-04T18:30:12.261Z,17.70
2018-10-04T18:32:41.441Z,16.65
2018-10-04T18:35:09.489Z,16.75
2018-10-04T18:37:37.492Z,16.07
2018-10-04T18:40:09.175Z,18.10
2018-10-04T18:42:37.157Z,14.60
2018-10-04T18:45:05.204Z,15.53
2018-10-04T18:47:33.449Z,16.50
2018-10-04T18:50:01.496Z,10.45
2018-10-04T18:52:29.558Z,12.20
2018-10-04T18:54:57.578Z,9.50
2018-10-04T18:57:29.373Z,15.48
2018-10-04T18:59:57.535Z,23.95
2018-10-04T19:02:25.497Z,16.73
2018-10-04T19:04:53.498Z,23.45
2018-10-04T19:07:23.644Z,9.00
2018-10-04T19:09:51.694Z,5.33
2018-10-04T19:12:19.712Z,13.83
2018-10-04T19:14:54.953Z,9.50
2018-10-04T19:17:23.141Z,16.48
2018-10-04T19:19:51.160Z,17.05
2018-10-04T19:22:26.466Z,21.55
2018-10-04T19:24:54.466Z,15.98
2018-10-04T19:27:22.649Z,9.38
2018-10-04T19:29:50.747Z,8.88
2018-10-04T19:32:20.184Z,16.35
2018-10-04T19:34:48.231Z,10.23
2018-10-04T19:37:16.225Z,11.65
2018-10-04T19:39:44.374Z,9.75
2018-10-04T19:42:22.727Z,6.97
2018-10-04T19:44:50.943Z,9.45
2018-10-04T19:47:18.981Z,7.78
2018-10-04T19:49:53.509Z,4.65
2018-10-04T19:52:21.550Z,7.97
2018-10-04T19:54:49.608Z,9.03
2018-10-04T19:57:17.719Z,8.80
2018-10-04T19:59:52.330Z,7.30
2018-10-04T20:02:20.432Z,6.97
2018-10-04T20:04:48.432Z,12.20
2018-10-04T20:07:16.459Z,10.80
2018-10-04T20:09:44.638Z,6.50
2018-10-04T20:12:12.687Z,10.35
2018-10-04T20:14:40.970Z,7.30
2018-10-04T20:17:09.458Z,6.58
2018-10-04T20:19:37.519Z,8.85
2018-10-04T20:22:09.478Z,5.62
2018-10-04T20:24:37.515Z,6.55
2018-10-04T20:27:05.524Z,6.50
2018-10-04T20:29:38.170Z,6.33
2018-10-04T20:32:06.374Z,4.03
2018-10-04T20:34:34.353Z,6.10
2018-10-04T20:37:08.911Z,9.05
2018-10-04T20:39:36.912Z,4.40
2018-10-04T20:42:04.900Z,7.05
2018-10-04T20:44:32.912Z,6.05
2018-10-04T20:47:00.872Z,5.70
2018-10-04T20:49:28.898Z,4.65
2018-10-04T20:51:56.845Z,8.18
2018-10-04T20:54:25.878Z,4.12
2018-10-04T20:56:53.808Z,6.47
2018-10-04T20:59:21.894Z,10.80
2018-10-04T21:01:49.750Z,10.90
2018-10-04T21:04:17.800Z,10.10
2018-10-04T21:06:45.789Z,6.97
2018-10-04T21:09:13.759Z,4.67
2018-10-04T21:11:41.795Z,6.53
2018-10-04T21:14:10.248Z,5.28
2018-10-04T21:16:38.214Z,4.80
2018-10-04T21:19:06.271Z,12.15
2018-10-04T21:21:41.441Z,7.22
2018-10-04T21:24:09.363Z,5.08
2018-10-04T21:26:43.289Z,4.83
2018-10-04T21:29:11.266Z,5.50
2018-10-04T21:31:45.703Z,8.28
2018-10-04T21:34:13.583Z,5.45
2018-10-04T21:36:41.541Z,6.72
2018-10-04T21:39:09.478Z,4.20
2018-10-04T21:41:43.750Z,4.92
2018-10-04T21:44:11.749Z,7.67
2018-10-04T21:46:39.734Z,4.25
2018-10-04T21:49:07.668Z,5.47
2018-10-04T21:51:37.666Z,4.80
2018-10-04T21:54:05.760Z,5.35
2018-10-04T21:56:33.775Z,5.65
2018-10-04T21:59:01.694Z,4.87
2018-10-04T22:01:29.711Z,6.20
2018-10-04T22:03:57.726Z,5.37
2018-10-04T22:06:25.723Z,6.90
2018-10-04T22:08:53.772Z,7.28
2018-10-04T22:11:21.761Z,5.25
2018-10-04T22:13:49.756Z,7.37
2018-10-04T22:16:17.713Z,10.50
2018-10-04T22:18:45.750Z,3.65
2018-10-04T22:21:13.712Z,5.85
2018-10-04T22:23:41.670Z,4.05
2018-10-04T22:26:09.603Z,4.45
2018-10-04T22:28:37.596Z,4.17
2018-10-04T22:31:05.580Z,5.25
2018-10-04T22:33:33.485Z,5.28
2018-10-04T22:36:01.544Z,6.17
2018-10-04T22:38:29.496Z,5.08
2018-10-04T22:40:57.471Z,3.92
2018-10-04T22:43:25.561Z,6.60
2018-10-04T22:45:53.563Z,3.95
2018-10-04T22:48:21.483Z,8.23
2018-10-04T22:50:49.431Z,3.77
2018-10-04T22:53:17.325Z,4.60
2018-10-04T22:55:45.333Z,4.10
2018-10-04T22:58:13.336Z,7.78
2018-10-04T23:00:41.359Z,6.90
2018-10-04T23:03:09.316Z,5.03
2018-10-04T23:05:37.319Z,7.60
2018-10-04T23:08:05.257Z,8.20
2018-10-04T23:10:33.200Z,6.25
2018-10-04T23:13:01.132Z,5.97
2018-10-04T23:15:29.131Z,7.10
2018-10-04T23:17:57.067Z,9.83
2018-10-04T23:20:25.113Z,5.65
2018-10-04T23:22:53.133Z,8.23
2018-10-04T23:25:21.249Z,5.15
2018-10-04T23:27:49.198Z,9.80
2018-10-04T23:30:17.176Z,10.98
2018-10-04T23:32:45.122Z,5.90
2018-10-04T23:35:13.052Z,8.40
2018-10-04T23:37:43.163Z,7.70
2018-10-04T23:40:11.142Z,7.40
2018-10-04T23:42:39.165Z,5.62
2018-10-04T23:45:07.332Z,5.37
2018-10-04T23:47:35.374Z,10.72
2018-10-04T23:50:03.401Z,8.78
2018-10-04T23:52:31.332Z,8.30
2018-10-04T23:54:59.296Z,7.50
2018-10-04T23:57:27.341Z,7.78
2018-10-04T23:59:55.311Z,5.20
